Time;durP1;ratioP1;P1;durP2;ratioP2;P2;SDS_P1;SDS_P2;PMS_P1;PMS_P2;Temp;Humidity;BMP_temperature;BMP_pressure;BME280_temperature;BME280_humidity;BME280_pressure;Samples;Min_cycle;Max_cycle;Signal;HPM_P1;HPM_P2
2023/07/01 00:01:38;;;;;;;20.08;16.85;;;;;;;18.81;100.00;98849.56;5095410;28;20379;-79
2023/07/01 00:04:04;;;;;;;22.52;16.45;;;;;;;18.70;100.00;98819.72;5095278;28;20357;-79
2023/07/01 00:06:29;;;;;;;19.33;15.55;;;;;;;18.83;100.00;98837.88;5095425;28;20092;-79
2023/07/01 00:08:54;;;;;;;21.48;17.38;;;;;;;18.98;100.00;98867.28;5094821;28;20051;-79
2023/07/01 00:11:21;;;;;;;19.45;15.70;;;;;;;18.97;100.00;98873.56;5094989;28;20058;-79
2023/07/01 00:13:47;;;;;;;23.30;17.52;;;;;;;18.79;100.00;98854.97;5095030;28;20085;-79
2023/07/01 00:16:13;;;;;;;19.50;15.65;;;;;;;18.90;100.00;98870.63;5094894;28;20517;-79
2023/07/01 00:18:40;;;;;;;18.00;15.95;;;;;;;18.95;100.00;98876.31;5094940;28;20028;-79
2023/07/01 00:21:06;;;;;;;20.30;17.38;;;;;;;18.76;100.00;98851.81;5094629;28;20039;-79
2023/07/01 00:23:31;;;;;;;19.83;16.48;;;;;;;18.88;100.00;98874.41;5094654;28;20032;-79
2023/07/01 00:25:57;;;;;;;22.63;16.30;;;;;;;18.87;100.00;98883.28;5094787;28;20103;-79
2023/07/01 00:28:22;;;;;;;22.35;18.58;;;;;;;18.74;100.00;98880.94;5094781;28;20105;-79
2023/07/01 00:30:47;;;;;;;20.13;17.27;;;;;;;18.72;100.00;98880.28;5094660;28;20104;-79
2023/07/01 00:33:12;;;;;;;23.48;18.08;;;;;;;18.58;100.00;98862.22;5094721;28;20032;-79
2023/07/01 00:35:38;;;;;;;22.42;18.23;;;;;;;18.63;100.00;98879.28;5094406;28;20052;-79
2023/07/01 00:38:03;;;;;;;21.95;17.77;;;;;;;18.43;100.00;98854.75;5094666;28;20075;-79
2023/07/01 00:40:29;;;;;;;22.42;17.52;;;;;;;18.55;100.00;98871.25;5094558;28;20024;-79
2023/07/01 00:42:54;;;;;;;23.08;18.77;;;;;;;18.34;100.00;98844.22;5094380;28;20032;-79
2023/07/01 00:45:19;;;;;;;23.77;19.38;;;;;;;18.50;100.00;98860.28;5094346;28;20031;-79
2023/07/01 00:47:45;;;;;;;22.55;18.55;;;;;;;18.49;100.00;98858.59;5094909;28;20495;-79
2023/07/01 00:50:12;;;;;;;23.33;17.55;;;;;;;18.51;100.00;98864.59;5094039;28;20077;-79
2023/07/01 00:52:38;;;;;;;20.40;17.55;;;;;;;18.56;100.00;98865.00;5094509;28;20032;-79
2023/07/01 00:55:08;;;;;;;20.05;17.38;;;;;;;18.47;100.00;98838.66;5094066;28;20043;-79
2023/07/01 00:57:33;;;;;;;21.45;17.85;;;;;;;18.53;100.00;98843.34;5093101;28;20372;-79
2023/07/01 01:00:03;;;;;;;21.45;18.23;;;;;;;18.48;100.00;98840.31;5094194;28;20027;-79
2023/07/01 01:02:36;;;;;;;20.77;17.05;;;;;;;18.50;100.00;98841.84;5094026;28;20035;-79
2023/07/01 01:05:14;;;;;;;27.20;19.23;;;;;;;18.53;100.00;98853.88;5093772;28;20027;-79
2023/07/01 01:07:55;;;;;;;23.20;18.77;;;;;;;18.61;100.00;98861.94;5094320;28;20028;-79
2023/07/01 01:10:22;;;;;;;26.17;19.70;;;;;;;18.52;100.00;98857.50;5093885;28;20115;-79
2023/07/01 01:12:53;;;;;;;23.45;18.70;;;;;;;18.50;100.00;98846.25;5094053;28;20479;-79
2023/07/01 01:15:18;;;;;;;26.42;18.95;;;;;;;18.30;100.00;98819.09;5093837;28;20047;-79
2023/07/01 01:17:45;;;;;;;28.83;20.58;;;;;;;18.27;100.00;98822.84;5093836;28;20054;-79
2023/07/01 01:20:20;;;;;;;27.45;19.65;;;;;;;18.40;100.00;98826.00;5093816;28;20032;-79
2023/07/01 01:22:55;;;;;;;26.20;20.05;;;;;;;18.47;100.00;98838.66;5094115;28;20044;-79
2023/07/01 01:25:28;;;;;;;24.85;19.92;;;;;;;18.45;100.00;98836.13;5093775;28;20069;-79
2023/07/01 01:27:55;;;;;;;24.08;19.15;;;;;;;18.37;100.00;98830.72;5091176;28;20092;-79
2023/07/01 01:30:24;;;;;;;27.33;21.23;;;;;;;18.27;100.00;98812.31;5093502;28;20042;-79
2023/07/01 01:32:50;;;;;;;25.80;19.88;;;;;;;18.28;100.00;98819.22;5093928;28;20032;-79
2023/07/01 01:35:15;;;;;;;23.85;20.08;;;;;;;18.38;100.00;98825.34;5092782;28;20039;-79
2023/07/01 01:38:01;;;;;;;27.17;21.38;;;;;;;18.29;100.00;98815.66;5093586;28;20387;-79
2023/07/01 01:40:38;;;;;;;30.25;23.05;;;;;;;18.38;100.00;98840.31;5093436;28;20115;-78
2023/07/01 01:43:10;;;;;;;30.15;21.98;;;;;;;18.39;100.00;98839.34;5093394;28;20486;-79
2023/07/01 01:45:37;;;;;;;29.08;22.52;;;;;;;18.38;100.00;98837.69;5093407;28;20119;-79
2023/07/01 01:48:04;;;;;;;29.58;23.02;;;;;;;18.36;100.00;98837.81;5093159;28;20593;-79
2023/07/01 01:50:32;;;;;;;28.80;22.55;;;;;;;18.22;100.00;98824.25;5093250;28;20169;-79
2023/07/01 01:53:01;;;;;;;28.83;22.67;;;;;;;18.23;100.00;98825.91;5092972;28;20103;-79
2023/07/01 01:55:27;;;;;;;30.85;23.90;;;;;;;18.34;100.00;98837.13;5092799;28;20028;-79
2023/07/01 01:57:53;;;;;;;30.45;22.80;;;;;;;18.34;100.00;98831.03;5092181;28;20062;-79
2023/07/01 02:00:19;;;;;;;28.38;21.40;;;;;;;18.36;100.00;98837.81;5093236;28;20056;-78
2023/07/01 02:02:44;;;;;;;28.88;22.38;;;;;;;18.26;100.00;98823.00;5092964;28;20085;-79
2023/07/01 02:05:09;;;;;;;31.05;23.95;;;;;;;18.35;100.00;98837.97;5092675;28;20031;-79
2023/07/01 02:07:35;;;;;;;29.67;21.88;;;;;;;18.37;100.00;98836.00;5092681;28;20020;-78
2023/07/01 02:10:00;;;;;;;27.88;22.45;;;;;;;18.29;100.00;98817.44;5092380;28;20019;-79
2023/07/01 02:12:26;;;;;;;36.50;24.13;;;;;;;18.43;100.00;98836.28;5093047;28;20063;-79
2023/07/01 02:14:51;;;;;;;29.30;21.38;;;;;;;18.38;100.00;98816.59;5092952;28;20020;-79
2023/07/01 02:17:17;;;;;;;29.27;22.00;;;;;;;18.19;100.00;98794.53;5092504;28;20031;-79
2023/07/01 02:19:42;;;;;;;33.08;23.73;;;;;;;18.39;100.00;98840.19;5092958;28;20087;-79
2023/07/01 02:22:07;;;;;;;29.70;22.67;;;;;;;18.45;100.00;98834.31;5092480;28;20076;-78
2023/07/01 02:24:33;;;;;;;27.50;22.02;;;;;;;18.39;100.00;98824.34;5092804;28;20115;-79
2023/07/01 02:26:59;;;;;;;28.42;22.42;;;;;;;18.56;100.00;98843.91;5092443;28;20024;-79
2023/07/01 02:29:24;;;;;;;28.08;21.67;;;;;;;18.48;100.00;98829.75;5092760;28;20024;-78
2023/07/01 02:31:50;;;;;;;31.10;23.15;;;;;;;18.47;100.00;98822.81;5092663;28;20047;-79
2023/07/01 02:34:15;;;;;;;27.48;21.25;;;;;;;18.44;100.00;98829.19;5092126;28;20055;-79
2023/07/01 02:36:43;;;;;;;27.85;21.15;;;;;;;18.52;100.00;98833.78;5092820;28;20052;-79
2023/07/01 02:39:08;;;;;;;26.23;20.88;;;;;;;18.59;100.00;98848.91;5092207;28;20020;-79
2023/07/01 02:41:34;;;;;;;30.38;23.45;;;;;;;18.57;100.00;98845.56;5092583;28;20028;-78
2023/07/01 02:43:59;;;;;;;28.27;21.73;;;;;;;18.51;100.00;98824.22;5092203;28;20029;-79
2023/07/01 02:46:27;;;;;;;29.30;21.30;;;;;;;18.66;100.00;98852.59;5092371;28;20040;-79
2023/07/01 02:48:52;;;;;;;27.75;22.08;;;;;;;18.70;100.00;98855.81;5092350;28;20028;-79
2023/07/01 02:51:17;;;;;;;29.15;22.88;;;;;;;18.57;100.00;98832.38;5090825;28;20396;-79
2023/07/01 02:53:43;;;;;;;27.13;21.70;;;;;;;18.67;100.00;98843.75;5071914;28;20024;-79
2023/07/01 02:56:08;;;;;;;28.17;22.08;;;;;;;18.64;100.00;98835.28;5070694;28;20056;-79
2023/07/01 02:58:33;;;;;;;28.38;22.02;;;;;;;18.73;100.00;98839.72;5072207;28;20376;-79
2023/07/01 03:00:59;;;;;;;29.42;22.05;;;;;;;18.69;100.00;98840.94;5071645;28;20459;-79
2023/07/01 03:03:24;;;;;;;29.73;23.70;;;;;;;18.75;100.00;98853.63;5072423;28;20032;-79
2023/07/01 03:05:49;;;;;;;26.10;20.48;;;;;;;18.75;100.00;98836.94;5072060;28;20028;-79
2023/07/01 03:08:15;;;;;;;30.02;23.38;;;;;;;18.75;100.00;98845.72;5073174;28;20063;-79
2023/07/01 03:10:40;;;;;;;33.47;25.70;;;;;;;18.73;100.00;98841.53;5076236;28;20456;-78
2023/07/01 03:13:05;;;;;;;30.63;23.90;;;;;;;18.61;100.00;98809.19;5075964;28;20488;-78
2023/07/01 03:15:31;;;;;;;32.58;23.05;;;;;;;18.58;100.00;98804.19;5075901;28;20046;-78
2023/07/01 03:17:56;;;;;;;31.98;23.60;;;;;;;18.63;100.00;98821.25;5075918;28;20031;-78
2023/07/01 03:20:24;;;;;;;33.67;23.80;;;;;;;18.62;100.00;98806.38;5075659;28;20020;-79
2023/07/01 03:22:51;;;;;;;31.92;24.27;;;;;;;18.62;100.00;98805.56;5075851;28;20036;-78
2023/07/01 03:25:16;;;;;;;32.53;25.40;;;;;;;18.57;100.00;98810.44;5075951;28;20021;-79
2023/07/01 03:27:42;;;;;;;32.35;23.27;;;;;;;18.74;100.00;98833.47;5075939;28;20039;-79
2023/07/01 03:30:13;;;;;;;32.28;23.83;;;;;;;18.60;100.00;98807.53;5075454;28;20055;-79
2023/07/01 03:32:47;;;;;;;32.92;24.65;;;;;;;18.48;100.00;98793.66;5076008;28;20028;-78
2023/07/01 03:35:15;;;;;;;29.65;22.90;;;;;;;18.74;100.00;98838.75;5075327;28;20032;-79
2023/07/01 03:37:42;;;;;;;28.20;21.48;;;;;;;18.62;100.00;98808.19;5075611;28;20488;-78
2023/07/01 03:40:11;;;;;;;31.92;24.98;;;;;;;18.72;100.00;98811.69;5075381;28;20021;-78
2023/07/01 03:42:40;;;;;;;30.63;22.65;;;;;;;18.75;100.00;98819.31;5075337;28;20396;-79
2023/07/01 03:45:07;;;;;;;34.47;24.73;;;;;;;18.85;100.00;98843.03;5075315;28;20016;-79
2023/07/01 03:47:37;;;;;;;34.38;25.17;;;;;;;18.70;100.00;98813.63;5075303;28;20032;-78
2023/07/01 03:50:03;;;;;;;32.60;24.25;;;;;;;18.90;100.00;98846.88;5074966;28;20415;-79
2023/07/01 03:52:29;;;;;;;33.35;25.20;;;;;;;18.81;100.00;98825.81;5075471;28;20036;-79
2023/07/01 03:54:56;;;;;;;29.77;22.40;;;;;;;18.88;100.00;98827.75;5075353;28;20024;-79
2023/07/01 03:57:22;;;;;;;30.70;22.30;;;;;;;19.00;100.00;98840.75;5074935;28;20032;-78
2023/07/01 03:59:47;;;;;;;31.83;24.45;;;;;;;18.92;100.00;98829.13;5075110;28;20101;-79
2023/07/01 04:02:12;;;;;;;30.35;23.65;;;;;;;18.89;100.00;98818.84;5074772;28;20025;-78
2023/07/01 04:04:38;;;;;;;32.67;23.52;;;;;;;18.87;100.00;98807.59;5074751;28;20020;-79
2023/07/01 04:07:05;;;;;;;30.38;23.20;;;;;;;19.00;100.00;98830.19;5075001;28;20033;-78
2023/07/01 04:09:30;;;;;;;31.38;23.35;;;;;;;18.95;100.00;98826.19;5074951;28;20179;-79
2023/07/01 04:11:56;;;;;;;31.48;23.92;;;;;;;18.80;100.00;98809.16;5074924;28;20078;-79
2023/07/01 04:14:23;;;;;;;30.50;21.65;;;;;;;18.87;100.00;98827.88;5074844;28;20028;-79
2023/07/01 04:16:49;;;;;;;25.55;20.92;;;;;;;18.82;100.00;98817.75;5074711;28;20139;-78
2023/07/01 04:19:14;;;;;;;32.03;24.23;;;;;;;18.89;100.00;98834.69;5074071;28;20025;-79
2023/07/01 04:21:40;;;;;;;31.80;23.38;;;;;;;18.79;100.00;98818.03;5074975;28;20039;-78
2023/07/01 04:24:07;;;;;;;26.00;21.35;;;;;;;18.84;100.00;98823.72;5074784;28;20028;-79
2023/07/01 04:26:33;;;;;;;26.00;20.23;;;;;;;18.89;100.00;98821.50;5074505;28;20029;-78
2023/07/01 04:28:58;;;;;;;26.75;20.77;;;;;;;18.85;100.00;98808.72;5074517;28;20028;-78
2023/07/01 04:31:24;;;;;;;30.60;22.20;;;;;;;18.92;100.00;98817.75;5074506;28;20435;-79
2023/07/01 04:33:49;;;;;;;24.98;20.35;;;;;;;18.83;100.00;98800.13;5074561;28;20021;-79
2023/07/01 04:36:15;;;;;;;26.80;20.65;;;;;;;19.05;100.00;98834.06;5074242;28;20048;-79
2023/07/01 04:38:41;;;;;;;25.88;21.05;;;;;;;18.95;100.00;98812.16;5074510;28;20103;-79
2023/07/01 04:41:06;;;;;;;28.80;22.05;;;;;;;19.06;100.00;98821.72;5074400;28;20079;-78
2023/07/01 04:43:32;;;;;;;30.75;23.27;;;;;;;19.08;100.00;98828.47;5074146;28;20486;-79
2023/07/01 04:45:57;;;;;;;27.75;21.17;;;;;;;19.17;100.00;98829.41;5074179;28;20040;-78
2023/07/01 04:48:23;;;;;;;26.55;21.65;;;;;;;19.15;100.00;98808.47;5074014;28;20550;-79
2023/07/01 04:50:48;;;;;;;28.00;21.98;;;;;;;19.28;100.00;98817.84;5074305;28;20033;-79
2023/07/01 04:53:13;;;;;;;26.75;20.75;;;;;;;19.22;100.00;98794.69;5073971;28;20455;-79
2023/07/01 04:55:39;;;;;;;26.83;21.35;;;;;;;19.27;100.00;98795.91;5074067;28;20029;-79
2023/07/01 04:58:04;;;;;;;26.55;20.23;;;;;;;19.38;100.00;98814.19;5073793;28;20055;-79
2023/07/01 05:00:30;;;;;;;24.90;19.20;;;;;;;19.40;100.00;98811.38;5073920;28;20032;-79
2023/07/01 05:02:55;;;;;;;25.17;20.50;;;;;;;19.45;100.00;98823.16;5073769;28;20027;-79
2023/07/01 05:05:20;;;;;;;24.23;18.83;;;;;;;19.38;100.00;98810.69;5073739;28;20031;-79
2023/07/01 05:07:46;;;;;;;27.00;20.48;;;;;;;19.34;100.00;98806.69;5073974;28;20052;-79
2023/07/01 05:10:12;;;;;;;22.05;18.63;;;;;;;19.52;100.00;98822.59;5073370;28;20032;-79
2023/07/01 05:12:37;;;;;;;24.15;18.95;;;;;;;19.58;100.00;98829.91;5074048;28;20379;-78
2023/07/01 05:15:03;;;;;;;26.35;18.95;;;;;;;19.45;100.00;98803.84;5073912;28;20028;-79
2023/07/01 05:17:28;;;;;;;22.63;17.70;;;;;;;19.56;100.00;98840.63;5073283;28;20029;-78
2023/07/01 05:19:54;;;;;;;29.95;19.02;;;;;;;19.50;100.00;98830.63;5073635;28;20081;-79
2023/07/01 05:22:19;;;;;;;24.70;18.25;;;;;;;19.57;100.00;98844.91;5073121;28;20089;-78
2023/07/01 05:24:44;;;;;;;22.20;17.10;;;;;;;19.57;100.00;98844.09;5073602;28;20162;-78
2023/07/01 05:27:10;;;;;;;19.67;15.02;;;;;;;19.54;100.00;98834.63;5073174;28;20040;-78
2023/07/01 05:29:35;;;;;;;21.45;17.60;;;;;;;19.60;100.00;98843.81;5073365;28;20064;-78
2023/07/01 05:32:00;;;;;;;22.08;16.90;;;;;;;19.55;100.00;98846.03;5073147;28;20103;-78
2023/07/01 05:34:26;;;;;;;19.23;15.10;;;;;;;19.61;100.00;98851.59;5071937;28;20020;-78
2023/07/01 05:36:51;;;;;;;19.58;16.33;;;;;;;19.44;100.00;98832.06;5073147;28;20052;-78
2023/07/01 05:39:17;;;;;;;21.50;16.27;;;;;;;19.58;100.00;98849.22;5072886;28;20056;-78
2023/07/01 05:41:43;;;;;;;20.80;16.58;;;;;;;19.61;100.00;98848.97;5073270;28;20036;-78
2023/07/01 05:44:10;;;;;;;24.88;18.45;;;;;;;19.59;100.00;98842.13;5072888;28;20103;-78
2023/07/01 05:46:35;;;;;;;20.52;15.75;;;;;;;19.59;100.00;98834.19;5072986;28;20064;-78
2023/07/01 05:49:00;;;;;;;20.35;16.10;;;;;;;19.43;100.00;98808.47;5073120;28;20094;-78
2023/07/01 05:51:26;;;;;;;21.63;16.58;;;;;;;19.68;100.00;98843.94;5072788;28;20241;-78
2023/07/01 05:53:51;;;;;;;19.70;16.02;;;;;;;19.63;100.00;98825.84;5072926;28;20078;-78
2023/07/01 05:56:16;;;;;;;22.35;16.75;;;;;;;19.57;100.00;98805.31;5072609;28;20039;-78
2023/07/01 05:58:42;;;;;;;18.83;15.30;;;;;;;19.78;100.00;98823.53;5072867;28;20578;-78
2023/07/01 06:01:08;;;;;;;20.88;15.00;;;;;;;19.88;100.00;98819.00;5072421;28;20031;-79
2023/07/01 06:03:33;;;;;;;19.13;14.57;;;;;;;20.09;100.00;98833.72;5072575;28;20024;-78
2023/07/01 06:05:58;;;;;;;18.20;14.85;;;;;;;20.04;100.00;98828.91;5072611;28;20033;-78
2023/07/01 06:08:24;;;;;;;17.80;15.13;;;;;;;20.01;100.00;98823.06;5072341;28;20042;-79
2023/07/01 06:10:49;;;;;;;16.88;13.68;;;;;;;19.89;100.00;98828.63;5072433;28;20063;-79
2023/07/01 06:13:15;;;;;;;14.27;12.18;;;;;;;20.07;100.00;98831.25;5072222;28;20441;-79
2023/07/01 06:15:40;;;;;;;14.63;12.20;;;;;;;20.21;100.00;98835.16;5072328;28;20031;-77
2023/07/01 06:18:05;;;;;;;16.05;12.80;;;;;;;20.40;100.00;98853.50;5072742;28;20468;-77
2023/07/01 06:20:31;;;;;;;14.55;12.32;;;;;;;20.37;100.00;98840.56;5072329;28;20029;-77
2023/07/01 06:22:56;;;;;;;16.80;12.68;;;;;;;20.31;100.00;98835.91;5072681;28;20017;-77
2023/07/01 06:25:21;;;;;;;14.70;12.07;;;;;;;20.44;100.00;98848.75;5072510;28;20025;-77
2023/07/01 06:27:47;;;;;;;16.25;12.57;;;;;;;20.36;100.00;98844.22;5072430;28;20035;-77
2023/07/01 06:30:12;;;;;;;17.50;12.80;;;;;;;20.27;100.00;98834.56;5087304;28;20429;-77
2023/07/01 06:32:37;;;;;;;13.50;11.68;;;;;;;20.28;100.00;98841.50;5077917;28;20535;-78
2023/07/01 06:35:03;;;;;;;15.65;12.60;;;;;;;20.26;100.00;98838.16;5072298;28;20025;-78
2023/07/01 06:37:28;;;;;;;15.60;13.48;;;;;;;20.23;100.00;98853.53;5071652;28;20074;-78
2023/07/01 06:39:54;;;;;;;14.20;11.15;;;;;;;20.12;100.00;98854.59;5072206;28;20036;-78
2023/07/01 06:42:19;;;;;;;14.05;12.00;;;;;;;20.11;100.00;98851.09;5071519;28;20028;-78
2023/07/01 06:44:45;;;;;;;12.60;9.70;;;;;;;20.05;100.00;98854.34;5072090;28;20033;-78
2023/07/01 06:47:10;;;;;;;12.82;10.52;;;;;;;19.87;100.00;98820.00;5090085;28;20024;-77
2023/07/01 06:49:35;;;;;;;13.48;10.43;;;;;;;20.14;100.00;98847.31;5092110;28;20028;-77
2023/07/01 06:52:02;;;;;;;11.77;10.48;;;;;;;20.40;100.00;98845.56;5092241;28;20487;-78
2023/07/01 06:54:27;;;;;;;12.15;10.55;;;;;;;20.86;100.00;98842.78;5090722;28;20050;-78
2023/07/01 06:56:53;;;;;;;12.27;9.15;;;;;;;20.96;100.00;98817.00;5071970;28;20020;-79
2023/07/01 06:59:18;;;;;;;9.80;8.50;;;;;;;21.14;100.00;98828.34;5072303;28;20376;-79
2023/07/01 07:01:43;;;;;;;9.50;7.25;;;;;;;21.23;99.24;98857.50;5071789;28;20480;-78
2023/07/01 07:04:09;;;;;;;8.18;6.90;;;;;;;21.20;99.09;98856.03;5072068;28;20056;-78
2023/07/01 07:06:34;;;;;;;10.63;8.15;;;;;;;21.01;98.46;98843.00;5071736;28;20025;-78
2023/07/01 07:09:00;;;;;;;9.27;8.07;;;;;;;20.96;99.13;98832.06;5071494;28;20041;-78
2023/07/01 07:11:25;;;;;;;10.00;7.45;;;;;;;20.93;98.92;98844.63;5071623;28;20639;-77
2023/07/01 07:13:50;;;;;;;8.88;7.10;;;;;;;20.95;99.26;98844.47;5071822;28;20558;-77
2023/07/01 07:16:16;;;;;;;8.27;6.70;;;;;;;20.77;99.02;98825.97;5070243;28;20028;-79
2023/07/01 07:18:41;;;;;;;9.32;7.20;;;;;;;20.87;99.28;98841.78;5071850;28;20078;-80
2023/07/01 07:21:07;;;;;;;8.20;7.40;;;;;;;20.81;98.80;98852.97;5071702;28;20028;-79
2023/07/01 07:23:32;;;;;;;8.35;6.50;;;;;;;20.74;98.54;98833.44;5071633;28;20461;-79
2023/07/01 07:25:57;;;;;;;8.98;7.55;;;;;;;20.84;99.43;98853.50;5071698;28;20028;-80
2023/07/01 07:28:23;;;;;;;9.88;8.35;;;;;;;20.84;99.18;98860.63;5071651;28;20085;-80
2023/07/01 07:30:48;;;;;;;8.85;7.00;;;;;;;20.81;97.93;98859.09;5071636;28;20033;-80
2023/07/01 07:33:13;;;;;;;8.65;6.57;;;;;;;20.65;97.55;98843.97;5069233;28;20049;-79
2023/07/01 07:35:39;;;;;;;10.23;9.13;;;;;;;20.66;98.87;98850.09;5071583;28;20063;-78
2023/07/01 07:38:04;;;;;;;10.90;8.45;;;;;;;20.54;99.07;98849.50;5071880;28;20111;-78
2023/07/01 07:40:30;;;;;;;9.45;8.20;;;;;;;20.62;99.43;98854.03;5071321;28;20033;-78
2023/07/01 07:42:55;;;;;;;9.45;7.22;;;;;;;20.46;99.64;98825.59;5071444;28;20025;-79
2023/07/01 07:45:21;;;;;;;8.48;7.38;;;;;;;20.51;99.23;98835.75;5071416;28;20028;-80
2023/07/01 07:47:46;;;;;;;8.82;6.88;;;;;;;20.76;99.51;98850.81;5070541;28;20373;-79
2023/07/01 07:50:12;;;;;;;8.15;6.63;;;;;;;20.98;98.36;98836.19;5071816;28;20024;-78
2023/07/01 07:52:37;;;;;;;9.55;7.82;;;;;;;21.09;97.21;98819.22;5071510;28;20349;-79
2023/07/01 07:55:04;;;;;;;9.13;7.47;;;;;;;21.30;95.25;98840.81;5072460;28;20029;-81
2023/07/01 07:57:29;;;;;;;7.93;7.00;;;;;;;21.50;94.67;98848.56;5074713;28;20017;-83
2023/07/01 07:59:54;;;;;;;11.80;7.55;;;;;;;21.56;94.43;98826.69;5074973;28;20074;-83
2023/07/01 08:02:20;;;;;;;8.82;7.65;;;;;;;21.63;94.38;98827.72;5074768;28;20052;-83
2023/07/01 08:04:45;;;;;;;8.77;7.85;;;;;;;21.68;95.18;98822.75;5074813;28;20028;-83
2023/07/01 08:07:10;;;;;;;9.13;8.23;;;;;;;21.81;95.15;98846.97;5074926;28;20419;-83
2023/07/01 08:09:37;;;;;;;9.90;8.15;;;;;;;21.66;93.79;98827.41;5074520;28;20040;-83
2023/07/01 08:12:03;;;;;;;9.45;7.75;;;;;;;21.69;93.27;98837.66;5074825;28;20020;-81
2023/07/01 08:14:29;;;;;;;11.40;10.13;;;;;;;21.52;92.83;98830.66;5074648;28;20738;-80
2023/07/01 08:16:55;;;;;;;10.15;8.38;;;;;;;21.42;92.77;98839.56;5074777;28;20032;-82
2023/07/01 08:19:21;;;;;;;12.15;8.90;;;;;;;21.45;93.37;98835.78;5083192;28;20032;-83
2023/07/01 08:21:46;;;;;;;8.35;7.22;;;;;;;21.51;94.03;98835.13;5094825;28;20035;-83
2023/07/01 08:24:11;;;;;;;10.90;8.00;;;;;;;21.46;94.87;98820.72;5094706;28;20032;-83
2023/07/01 08:26:37;;;;;;;9.05;8.15;;;;;;;21.39;95.49;98812.56;5094412;28;20107;-83
2023/07/01 08:29:05;;;;;;;12.98;8.10;;;;;;;21.42;96.10;98828.16;5094443;28;20459;-83
2023/07/01 08:31:31;;;;;;;9.18;7.80;;;;;;;21.30;95.64;98806.38;5094591;28;20020;-83
2023/07/01 08:33:57;;;;;;;10.88;8.10;;;;;;;21.36;95.85;98834.06;5093736;28;20035;-83
2023/07/01 08:36:23;;;;;;;8.63;7.75;;;;;;;21.10;96.03;98797.03;5093668;28;20076;-83
2023/07/01 08:38:48;;;;;;;9.70;8.38;;;;;;;21.28;96.76;98820.78;5094250;28;20063;-80
2023/07/01 08:41:14;;;;;;;10.20;8.38;;;;;;;21.42;96.86;98839.56;5094348;28;20020;-78
2023/07/01 08:43:42;;;;;;;9.23;7.70;;;;;;;21.58;97.69;98822.91;5093244;28;20024;-81
2023/07/01 08:46:12;;;;;;;8.85;7.07;;;;;;;21.75;97.43;98817.66;5094126;28;20368;-81
2023/07/01 08:48:38;;;;;;;8.90;7.60;;;;;;;22.05;95.77;98817.00;5093931;28;20031;-81
2023/07/01 08:51:16;;;;;;;9.95;8.13;;;;;;;22.29;94.00;98824.19;5094005;28;20091;-81
2023/07/01 08:53:42;;;;;;;9.18;8.13;;;;;;;22.33;92.64;98798.13;5093614;28;20076;-81
2023/07/01 08:56:09;;;;;;;11.38;9.43;;;;;;;22.61;90.35;98827.78;5093716;28;20060;-81
2023/07/01 08:58:34;;;;;;;10.50;8.90;;;;;;;22.59;89.39;98816.53;5093377;28;20715;-80
2023/07/01 09:00:59;;;;;;;11.10;9.90;;;;;;;22.60;89.56;98818.19;5093702;28;20070;-80
2023/07/01 09:03:27;;;;;;;13.13;10.38;;;;;;;22.69;90.45;98819.00;5093401;28;20371;-81
2023/07/01 09:05:52;;;;;;;13.20;10.85;;;;;;;22.81;88.73;98791.91;5093671;28;20036;-80
2023/07/01 09:08:18;;;;;;;12.10;10.27;;;;;;;23.07;88.30;98793.50;5093658;28;20028;-81
2023/07/01 09:10:43;;;;;;;13.73;11.40;;;;;;;23.25;89.21;98794.09;5093658;28;20103;-80
2023/07/01 09:13:13;;;;;;;13.60;10.82;;;;;;;23.60;89.16;98807.88;5094105;28;20043;-81
2023/07/01 09:15:48;;;;;;;13.88;10.93;;;;;;;23.85;88.24;98790.78;5093771;28;20123;-80
2023/07/01 09:18:24;;;;;;;13.65;12.23;;;;;;;24.22;86.84;98810.44;5094047;28;20028;-81
2023/07/01 09:20:51;;;;;;;14.75;12.73;;;;;;;24.11;83.36;98785.09;5093553;28;20024;-81
2023/07/01 09:23:38;;;;;;;14.48;12.93;;;;;;;23.96;84.68;98794.84;5075995;28;20025;-81
2023/07/01 09:26:06;;;;;;;15.45;12.70;;;;;;;24.03;85.23;98798.47;5073521;28;20044;-81
2023/07/01 09:28:33;;;;;;;15.25;12.30;;;;;;;23.96;85.14;98788.69;5072876;28;20103;-81
2023/07/01 09:31:00;;;;;;;14.15;12.73;;;;;;;23.89;84.70;98783.25;5072968;28;20028;-81
2023/07/01 09:33:25;;;;;;;15.73;12.52;;;;;;;23.69;85.84;98766.16;5081100;28;20024;-81
2023/07/01 09:35:57;;;;;;;17.85;14.52;;;;;;;23.58;84.30;98791.25;5075744;28;20055;-82
2023/07/01 09:38:25;;;;;;;15.15;13.07;;;;;;;23.21;85.75;98794.59;5073267;28;20111;-82
2023/07/01 09:40:51;;;;;;;14.85;11.57;;;;;;;23.22;86.25;98775.84;5072862;28;20442;-82
2023/07/01 09:43:19;;;;;;;13.88;11.60;;;;;;;23.30;86.99;98773.16;5072901;28;20024;-81
2023/07/01 09:45:54;;;;;;;15.50;12.75;;;;;;;23.43;86.16;98788.53;5072519;28;20030;-82
2023/07/01 09:48:20;;;;;;;14.20;11.95;;;;;;;23.36;86.18;98772.44;5072791;28;20103;-82
2023/07/01 09:50:46;;;;;;;15.55;12.38;;;;;;;23.27;85.77;98767.38;5072989;28;20029;-82
2023/07/01 09:53:29;;;;;;;13.25;11.02;;;;;;;23.51;86.33;98761.91;5072511;28;20025;-82
2023/07/01 09:55:56;;;;;;;14.70;12.27;;;;;;;23.50;85.10;98764.72;5072678;28;20107;-82
2023/07/01 09:58:22;;;;;;;13.32;11.82;;;;;;;23.77;85.25;98769.56;5072477;28;20024;-82
2023/07/01 10:00:48;;;;;;;15.77;13.10;;;;;;;23.66;84.78;98751.38;5072405;28;20322;-82
2023/07/01 10:03:14;;;;;;;15.80;11.68;;;;;;;23.51;85.77;98745.97;5072649;28;20029;-82
2023/07/01 10:05:43;;;;;;;14.77;12.10;;;;;;;23.84;84.52;98765.19;5072756;28;20050;-82
2023/07/01 10:08:08;;;;;;;14.90;11.52;;;;;;;23.72;83.38;98725.88;5072893;28;20017;-82
2023/07/01 10:10:33;;;;;;;14.05;12.23;;;;;;;23.95;83.82;98744.50;5072934;28;20074;-83
2023/07/01 10:13:01;;;;;;;16.52;13.45;;;;;;;23.91;80.42;98757.31;5071431;28;20380;-82
2023/07/01 10:15:32;;;;;;;13.15;11.75;;;;;;;23.63;82.00;98715.28;5072553;28;20029;-83
2023/07/01 10:17:58;;;;;;;13.18;10.90;;;;;;;24.02;82.29;98732.97;5072199;28;20016;-82
2023/07/01 10:20:27;;;;;;;14.30;12.07;;;;;;;24.10;81.95;98706.28;5072726;28;20460;-82
2023/07/01 10:22:55;;;;;;;14.85;12.25;;;;;;;24.52;82.50;98744.78;5072565;28;20031;-82
2023/07/01 10:25:33;;;;;;;15.80;13.20;;;;;;;24.28;78.43;98737.06;5072419;28;20429;-82
2023/07/01 10:27:59;;;;;;;13.10;11.65;;;;;;;24.36;80.58;98732.47;5072421;28;20024;-83
2023/07/01 10:30:26;;;;;;;14.45;12.50;;;;;;;24.46;81.13;98702.13;5072301;28;20028;-83
2023/07/01 10:32:51;;;;;;;13.68;11.98;;;;;;;24.58;78.20;98719.28;5072857;28;20074;-83
2023/07/01 10:35:17;;;;;;;15.50;12.98;;;;;;;24.39;79.13;98718.00;5072110;28;20464;-82
2023/07/01 10:38:04;;;;;;;15.32;12.32;;;;;;;24.43;78.63;98734.44;5071844;28;20545;-83
2023/07/01 10:40:29;;;;;;;13.20;11.77;;;;;;;24.37;80.47;98730.63;5072151;28;20365;-82
2023/07/01 10:43:29;;;;;;;13.43;12.00;;;;;;;24.51;79.74;98724.50;5072286;28;20073;-82
2023/07/01 10:46:23;;;;;;;13.32;11.63;;;;;;;24.52;80.25;98718.19;5072490;28;20039;-82
2023/07/01 10:49:03;;;;;;;13.48;12.07;;;;;;;24.58;78.60;98717.47;5071918;28;20085;-82
2023/07/01 10:51:48;;;;;;;13.93;11.75;;;;;;;24.55;79.68;98717.81;5072116;28;20024;-83
2023/07/01 10:54:29;;;;;;;12.43;11.05;;;;;;;24.53;79.22;98689.75;5072028;28;20373;-82
2023/07/01 10:57:15;;;;;;;15.98;11.75;;;;;;;24.54;79.05;98678.09;5072390;28;20028;-82
2023/07/01 10:59:41;;;;;;;14.43;12.10;;;;;;;24.60;78.33;98685.31;5072186;28;20029;-82
2023/07/01 11:02:09;;;;;;;12.98;11.68;;;;;;;24.65;77.87;98672.28;5072409;28;20032;-82
2023/07/01 11:05:04;;;;;;;15.63;11.30;;;;;;;24.82;77.72;98676.41;5071839;28;20025;-82
2023/07/01 11:07:31;;;;;;;16.98;14.35;;;;;;;24.73;76.82;98656.19;5049334;28;20052;-83
2023/07/01 11:09:56;;;;;;;14.88;13.23;;;;;;;24.91;77.52;98670.97;5049208;28;20048;-82
2023/07/01 11:12:23;;;;;;;14.90;13.23;;;;;;;24.87;77.83;98662.53;5049334;28;20045;-82
2023/07/01 11:14:51;;;;;;;14.77;13.10;;;;;;;24.75;77.40;98651.53;5049288;28;20127;-83